Time;durP1;ratioP1;P1;durP2;ratioP2;P2;SDS_P1;SDS_P2;PMS_P1;PMS_P2;Temp;Humidity;BMP_temperature;BMP_pressure;BME280_temperature;BME280_humidity;BME280_pressure;Samples;Min_cycle;Max_cycle;Signal;HPM_P1;HPM_P2
2023/08/13 00:01:40;;;;;;;11.60;5.20;;;;;;;22.78;72.71;100413.39;212563;1294;143577;-82
2023/08/13 00:06:41;;;;;;;8.30;5.60;;;;;;;22.71;73.05;100416.94;213096;1298;139031;-81
2023/08/13 00:11:41;;;;;;;9.80;5.50;;;;;;;22.65;73.79;100424.38;212509;1299;140706;-81
2023/08/13 00:16:42;;;;;;;16.00;5.60;;;;;;;22.57;74.71;100427.77;213206;1300;108363;-81
2023/08/13 00:21:42;;;;;;;10.20;5.90;;;;;;;22.45;75.74;100428.85;212538;1298;143583;-81
2023/08/13 00:26:43;;;;;;;11.00;6.30;;;;;;;22.28;76.80;100429.02;213074;1298;140424;-81
2023/08/13 00:31:43;;;;;;;10.00;6.00;;;;;;;22.12;76.64;100421.94;212629;1298;141403;-82
2023/08/13 00:36:44;;;;;;;10.50;5.60;;;;;;;22.02;77.95;100428.07;213025;1294;139393;-81
2023/08/13 00:41:44;;;;;;;10.40;5.80;;;;;;;21.86;78.62;100430.80;212538;1297;141102;-81
2023/08/13 00:46:45;;;;;;;10.00;5.90;;;;;;;21.75;78.65;100430.73;213081;1299;97944;-82
2023/08/13 00:51:46;;;;;;;12.50;5.80;;;;;;;21.63;80.09;100434.95;212412;1298;140852;-82
2023/08/13 00:56:47;;;;;;;14.20;6.20;;;;;;;21.45;80.52;100437.45;213142;1299;139730;-82
2023/08/13 01:01:47;;;;;;;9.90;6.70;;;;;;;21.27;81.61;100432.85;212459;1298;141503;-82
2023/08/13 01:07:12;;;;;;;12.00;6.90;;;;;;;21.12;82.07;100432.23;213540;1297;138957;-82
2023/08/13 01:12:27;;;;;;;12.10;6.40;;;;;;;21.00;83.11;100439.08;212444;1298;141994;-82
2023/08/13 01:17:29;;;;;;;13.40;6.50;;;;;;;20.84;83.92;100435.24;213123;1298;106844;-82
2023/08/13 01:22:30;;;;;;;9.20;6.40;;;;;;;20.70;84.37;100434.48;212619;1299;141237;-82
2023/08/13 01:27:49;;;;;;;11.00;6.80;;;;;;;20.59;84.99;100437.13;213115;1298;139253;-82
2023/08/13 01:33:02;;;;;;;9.50;6.30;;;;;;;20.46;85.80;100448.13;212476;1299;140928;-82
2023/08/13 01:38:04;;;;;;;10.10;6.20;;;;;;;20.37;86.54;100444.46;214294;1295;139834;-82
2023/08/13 01:43:04;;;;;;;10.10;6.20;;;;;;;20.29;86.57;100447.02;212388;1299;142258;-81
2023/08/13 01:48:07;;;;;;;11.20;6.80;;;;;;;20.23;86.91;100454.71;212966;1299;138912;-82
2023/08/13 01:53:08;;;;;;;9.30;6.30;;;;;;;20.18;87.38;100455.88;212568;1296;142160;-82
2023/08/13 01:58:10;;;;;;;10.10;6.50;;;;;;;20.14;87.78;100459.57;212975;1299;139661;-81
2023/08/13 02:03:10;;;;;;;11.60;6.80;;;;;;;20.11;88.16;100465.98;212443;1300;141621;-82
2023/08/13 02:08:11;;;;;;;14.90;7.30;;;;;;;20.09;88.99;100465.86;213263;1300;139574;-82
2023/08/13 02:13:12;;;;;;;14.80;7.50;;;;;;;20.05;89.70;100475.52;212856;1294;142931;-81
2023/08/13 02:18:12;;;;;;;12.90;8.00;;;;;;;20.04;91.21;100483.00;213159;1297;138997;-81
2023/08/13 02:23:13;;;;;;;10.60;7.10;;;;;;;20.04;91.94;100488.58;212875;1298;140836;-82
2023/08/13 02:28:13;;;;;;;11.70;7.30;;;;;;;20.05;92.91;100487.66;213094;1298;139037;-82
2023/08/13 02:33:14;;;;;;;12.00;7.40;;;;;;;20.06;93.99;100490.83;213208;1296;140825;-81
2023/08/13 02:38:14;;;;;;;10.60;7.80;;;;;;;20.06;93.91;100492.27;213678;1299;141316;-82
2023/08/13 02:43:14;;;;;;;11.30;8.20;;;;;;;20.07;94.45;100495.94;213153;1299;142056;-82
2023/08/13 02:48:15;;;;;;;15.00;9.40;;;;;;;20.08;95.00;100501.03;213216;1296;139287;-82
2023/08/13 02:53:15;;;;;;;12.10;7.70;;;;;;;20.07;95.91;100505.67;212822;1294;140638;-82
2023/08/13 02:58:16;;;;;;;12.50;8.30;;;;;;;20.04;96.00;100507.17;213479;1296;138995;-82
2023/08/13 03:03:16;;;;;;;14.20;9.60;;;;;;;20.03;96.57;100512.30;213074;1294;140950;-82
2023/08/13 03:08:16;;;;;;;15.40;9.90;;;;;;;20.01;97.71;100516.42;213389;1296;139131;-82
2023/08/13 03:13:17;;;;;;;14.20;9.20;;;;;;;20.01;98.35;100520.58;213399;1294;142506;-82
2023/08/13 03:18:17;;;;;;;11.00;7.80;;;;;;;20.02;98.76;100517.85;213784;1296;139059;-81
2023/08/13 03:23:18;;;;;;;11.20;8.50;;;;;;;20.01;99.05;100521.67;213169;1298;141031;-82
2023/08/13 03:28:18;;;;;;;12.10;8.60;;;;;;;20.00;99.23;100528.67;212962;1299;138777;-82
2023/08/13 03:33:19;;;;;;;13.20;8.90;;;;;;;19.99;99.57;100524.47;212397;1299;140252;-81
2023/08/13 03:38:19;;;;;;;14.10;9.50;;;;;;;19.98;99.76;100523.31;213053;1294;139063;-82
2023/08/13 03:43:19;;;;;;;13.80;9.80;;;;;;;19.95;99.99;100523.68;212468;1298;141016;-82
2023/08/13 03:48:20;;;;;;;14.90;9.40;;;;;;;19.96;100.00;100530.61;213028;1296;139196;-82
2023/08/13 03:53:24;;;;;;;15.80;10.30;;;;;;;19.96;100.00;100539.16;212438;1296;141325;-82
2023/08/13 03:58:25;;;;;;;11.60;9.00;;;;;;;19.97;100.00;100540.00;213121;1294;139360;-82
2023/08/13 04:03:25;;;;;;;13.40;9.20;;;;;;;19.97;100.00;100542.70;212466;1298;141436;-82
2023/08/13 04:08:26;;;;;;;13.90;9.00;;;;;;;19.98;100.00;100545.01;212870;1296;139373;-82
2023/08/13 04:13:27;;;;;;;14.20;10.00;;;;;;;20.00;100.00;100551.42;212447;1295;140816;-82
2023/08/13 04:18:27;;;;;;;14.60;10.00;;;;;;;20.01;100.00;100550.59;212890;1298;139414;-82
2023/08/13 04:23:28;;;;;;;14.20;9.70;;;;;;;20.00;100.00;100553.89;212493;1299;142464;-82
2023/08/13 04:28:28;;;;;;;13.40;9.50;;;;;;;20.03;100.00;100560.45;212800;1296;139059;-82
2023/08/13 04:33:28;;;;;;;12.80;10.20;;;;;;;20.02;100.00;100564.76;212351;1296;143216;-82
2023/08/13 04:38:29;;;;;;;14.40;10.50;;;;;;;20.03;100.00;100571.94;212796;1296;139358;-82
2023/08/13 04:43:29;;;;;;;13.30;10.10;;;;;;;20.06;100.00;100568.14;212428;1294;143943;-82
2023/08/13 04:48:44;;;;;;;12.50;9.70;;;;;;;20.11;100.00;100568.81;212977;1293;139902;-82
2023/08/13 04:53:44;;;;;;;13.20;9.80;;;;;;;20.18;100.00;100574.37;212382;1294;141395;-82
2023/08/13 04:58:45;;;;;;;13.70;10.10;;;;;;;20.27;100.00;100576.05;213205;1294;108506;-82
2023/08/13 05:03:45;;;;;;;13.70;10.20;;;;;;;20.37;100.00;100581.70;212658;1297;142394;-82
2023/08/13 05:08:46;;;;;;;13.40;10.00;;;;;;;20.45;100.00;100590.52;212893;1298;139516;-82
2023/08/13 05:13:46;;;;;;;15.50;10.80;;;;;;;20.53;100.00;100595.98;212521;1294;141800;-82
2023/08/13 05:18:47;;;;;;;15.10;10.60;;;;;;;20.56;100.00;100601.40;212869;1300;139792;-82
2023/08/13 05:23:47;;;;;;;15.70;10.90;;;;;;;20.58;100.00;100605.73;212544;1294;141426;-82
2023/08/13 05:28:47;;;;;;;13.30;11.60;;;;;;;20.60;100.00;100609.59;212940;1295;98135;-82
2023/08/13 05:33:48;;;;;;;14.30;9.90;;;;;;;20.65;100.00;100611.55;212516;1294;142497;-83
2023/08/13 05:38:48;;;;;;;14.60;9.60;;;;;;;20.76;100.00;100609.23;212925;1299;140706;-82
2023/08/13 05:43:48;;;;;;;13.40;9.60;;;;;;;21.02;100.00;100611.02;212594;1298;141688;-83
2023/08/13 05:48:49;;;;;;;13.00;8.60;;;;;;;21.38;100.00;100613.45;213428;1299;139964;-82
2023/08/13 05:53:49;;;;;;;10.70;8.30;;;;;;;21.82;100.00;100616.84;212544;1294;143108;-84
2023/08/13 05:58:50;;;;;;;9.50;6.90;;;;;;;22.33;100.00;100624.02;213126;1297;105497;-84
2023/08/13 06:03:50;;;;;;;10.30;7.00;;;;;;;22.82;100.00;100626.52;212895;1296;142409;-84
2023/08/13 06:08:51;;;;;;;10.70;7.20;;;;;;;23.24;100.00;100630.75;213540;1299;140557;-84
2023/08/13 06:13:52;;;;;;;11.20;6.70;;;;;;;23.68;100.00;100632.35;213070;1293;141162;-85
2023/08/13 06:18:53;;;;;;;9.60;6.70;;;;;;;24.11;99.33;100633.12;213578;1293;139039;-84
2023/08/13 06:23:53;;;;;;;8.50;5.60;;;;;;;24.48;97.44;100646.38;213086;1294;140449;-84
2023/08/13 06:28:54;;;;;;;8.70;6.10;;;;;;;24.68;94.79;100659.60;213128;1296;97989;-84
2023/08/13 06:33:54;;;;;;;7.70;5.70;;;;;;;24.70;91.75;100661.91;212970;1293;143282;-84
2023/08/13 06:38:55;;;;;;;10.00;6.10;;;;;;;24.62;91.30;100664.33;213490;1294;138683;-84
2023/08/13 06:43:55;;;;;;;8.20;6.20;;;;;;;24.66;90.61;100669.89;212617;1298;140563;-84
2023/08/13 06:48:56;;;;;;;10.90;5.60;;;;;;;24.66;89.50;100675.94;213212;1298;139271;-84
2023/08/13 06:53:56;;;;;;;9.10;6.20;;;;;;;24.63;88.65;100678.13;212740;1297;141446;-84
2023/08/13 06:58:56;;;;;;;9.20;6.00;;;;;;;24.55;88.44;100677.98;213138;1296;107608;-83
2023/08/13 07:03:57;;;;;;;7.50;5.60;;;;;;;24.53;88.36;100681.48;212816;1293;140761;-84
2023/08/13 07:08:58;;;;;;;9.70;5.50;;;;;;;24.62;88.40;100687.70;212921;1298;141456;-82
2023/08/13 07:13:59;;;;;;;8.20;6.00;;;;;;;24.60;87.00;100701.74;213074;1294;138680;-81
2023/08/13 07:18:59;;;;;;;8.70;5.90;;;;;;;24.55;86.55;100705.08;212893;1293;141766;-83
2023/08/13 07:24:00;;;;;;;8.30;5.50;;;;;;;24.50;86.19;100707.44;213345;1294;138829;-81
2023/08/13 07:29:02;;;;;;;9.80;5.40;;;;;;;24.51;86.91;100707.34;213083;1294;141276;-82
2023/08/13 07:34:03;;;;;;;8.20;5.50;;;;;;;24.57;86.62;100713.45;213324;1293;138518;-82
2023/08/13 07:39:05;;;;;;;6.90;4.40;;;;;;;24.58;85.09;100714.61;212889;1294;140618;-81
2023/08/13 07:44:05;;;;;;;7.80;4.80;;;;;;;24.54;84.59;100723.15;213242;1297;139926;-82
2023/08/13 07:49:06;;;;;;;7.60;4.70;;;;;;;24.48;84.02;100723.16;212515;1297;143717;-83
2023/08/13 07:54:06;;;;;;;9.40;5.30;;;;;;;24.36;84.72;100727.31;213366;1294;139077;-82
2023/08/13 07:59:06;;;;;;;7.30;4.90;;;;;;;24.43;85.61;100732.33;212825;1294;141116;-82
2023/08/13 08:04:07;;;;;;;7.90;5.00;;;;;;;24.56;85.12;100737.45;213204;1297;138542;-81
2023/08/13 08:09:07;;;;;;;8.40;4.90;;;;;;;24.67;84.87;100736.28;212752;1295;142356;-82
2023/08/13 08:14:08;;;;;;;6.90;4.80;;;;;;;24.86;84.42;100743.27;213263;1293;139254;-81
2023/08/13 08:19:09;;;;;;;7.10;4.40;;;;;;;25.11;84.11;100747.02;212546;1293;140858;-82
2023/08/13 08:24:09;;;;;;;7.00;4.50;;;;;;;25.41;83.07;100756.11;213277;1293;139045;-82
2023/08/13 08:29:09;;;;;;;6.30;3.80;;;;;;;25.57;82.49;100759.98;212767;1297;142133;-83
2023/08/13 08:34:10;;;;;;;7.00;4.00;;;;;;;25.89;82.70;100764.36;213384;1294;140309;-81
2023/08/13 08:39:11;;;;;;;5.00;3.60;;;;;;;26.29;81.76;100762.10;213037;1294;141118;-82
2023/08/13 08:44:18;;;;;;;6.60;3.60;;;;;;;26.66;80.88;100765.11;214142;1296;138987;-81
2023/08/13 08:49:21;;;;;;;5.30;3.40;;;;;;;27.15;79.53;100756.30;213632;1299;141546;-82
2023/08/13 08:54:22;;;;;;;5.50;2.90;;;;;;;27.61;77.51;100758.92;214312;1300;138949;-81
2023/08/13 08:59:23;;;;;;;4.80;2.90;;;;;;;28.04;76.46;100755.48;214316;1294;162023;-82
2023/08/13 09:04:24;;;;;;;5.40;3.20;;;;;;;28.65;74.67;100756.69;214568;1295;139040;-82
2023/08/13 09:09:26;;;;;;;4.50;3.10;;;;;;;29.23;72.27;100760.91;213537;1294;141209;-82
2023/08/13 09:14:26;;;;;;;4.50;3.00;;;;;;;29.73;70.98;100758.55;213608;1294;138851;-83
2023/08/13 09:19:28;;;;;;;6.10;3.10;;;;;;;30.41;68.56;100764.91;212771;1299;140590;-82
2023/08/13 09:24:31;;;;;;;6.10;3.20;;;;;;;30.99;66.67;100775.09;213266;1300;138401;-82
2023/08/13 09:29:32;;;;;;;5.50;3.00;;;;;;;31.60;64.32;100770.66;212754;1294;140272;-81
2023/08/13 09:34:33;;;;;;;4.40;3.10;;;;;;;32.03;62.44;100765.94;213237;1293;139019;-82
2023/08/13 09:39:34;;;;;;;4.40;2.50;;;;;;;32.33;61.01;100765.91;212709;1294;140127;-82
2023/08/13 09:44:35;;;;;;;4.10;2.70;;;;;;;32.83;58.82;100762.86;213204;1294;139540;-82
2023/08/13 09:49:36;;;;;;;5.00;3.20;;;;;;;33.04;56.41;100761.14;212708;1294;140818;-82
2023/08/13 09:54:58;;;;;;;4.00;3.10;;;;;;;33.34;57.01;100755.79;213017;1298;242237;-81
2023/08/13 10:00:00;;;;;;;4.40;2.70;;;;;;;33.75;55.40;100752.27;212601;1299;139729;-82
2023/08/13 10:05:03;;;;;;;3.90;2.50;;;;;;;33.97;52.92;100755.23;213207;1297;97997;-82
2023/08/13 10:10:03;;;;;;;5.00;2.40;;;;;;;34.06;51.75;100759.06;212780;1294;140210;-84
2023/08/13 10:15:05;;;;;;;2.90;2.20;;;;;;;34.16;49.68;100759.19;213167;1294;138124;-85
2023/08/13 10:20:06;;;;;;;3.60;2.50;;;;;;;34.20;48.26;100763.09;212497;1294;140289;-82
2023/08/13 10:25:08;;;;;;;3.60;2.50;;;;;;;34.41;49.92;100758.83;213319;1298;139799;-82
2023/08/13 10:30:14;;;;;;;4.00;2.20;;;;;;;34.33;46.10;100757.84;212531;1299;140197;-84
2023/08/13 10:35:42;;;;;;;3.40;2.10;;;;;;;34.15;46.12;100755.50;213026;1296;98873;-82
2023/08/13 10:41:03;;;;;;;5.00;2.50;;;;;;;34.47;46.36;100760.38;212477;1296;140292;-83
2023/08/13 10:46:05;;;;;;;4.60;2.40;;;;;;;34.78;44.44;100767.02;212946;1295;138766;-84
2023/08/13 10:51:06;;;;;;;3.00;2.30;;;;;;;34.88;42.62;100766.59;212425;1297;139690;-82
2023/08/13 10:56:06;;;;;;;3.90;2.30;;;;;;;34.74;43.39;100762.35;213092;1297;138075;-80
2023/08/13 11:01:16;;;;;;;4.40;2.40;;;;;;;34.87;43.94;100767.48;212517;1295;141612;-82
2023/08/13 11:06:19;;;;;;;6.20;2.60;;;;;;;35.20;43.83;100776.48;212872;1299;139808;-82
2023/08/13 11:11:20;;;;;;;4.30;2.50;;;;;;;35.39;42.59;100778.80;212513;1300;140633;-81
2023/08/13 11:16:20;;;;;;;3.30;2.40;;;;;;;35.40;41.63;100771.48;213002;1298;138209;-82
2023/08/13 11:21:23;;;;;;;3.10;2.30;;;;;;;35.30;42.66;100765.79;212406;1295;140182;-82
2023/08/13 11:26:24;;;;;;;3.60;2.30;;;;;;;35.17;41.30;100765.77;212773;1298;138166;-83
2023/08/13 11:31:24;;;;;;;5.40;2.40;;;;;;;35.07;40.81;100759.30;212399;1296;140180;-82
2023/08/13 11:36:26;;;;;;;3.70;2.30;;;;;;;34.90;41.03;100759.84;212986;1297;138016;-82
2023/08/13 11:41:26;;;;;;;3.50;2.00;;;;;;;34.85;40.51;100761.17;212689;1294;141312;-82
2023/08/13 11:46:27;;;;;;;4.20;2.40;;;;;;;34.79;40.09;100761.43;212957;1297;137860;-82
2023/08/13 11:51:27;;;;;;;3.70;2.30;;;;;;;34.42;40.98;100755.55;212392;1293;139285;-81
2023/08/13 11:56:28;;;;;;;3.60;2.00;;;;;;;34.41;41.71;100758.95;212989;1298;138300;-83
2023/08/13 12:01:28;;;;;;;5.20;2.20;;;;;;;34.53;40.16;100754.77;212400;1299;141194;-82
2023/08/13 12:06:29;;;;;;;6.20;2.60;;;;;;;34.24;39.16;100758.96;212920;1297;138053;-81
2023/08/13 12:11:29;;;;;;;3.90;2.00;;;;;;;33.80;39.26;100758.05;212475;1295;139328;-81
2023/08/13 12:16:30;;;;;;;4.90;2.20;;;;;;;33.40;39.09;100757.17;212738;1296;138089;-83
2023/08/13 12:21:31;;;;;;;5.10;2.30;;;;;;;32.78;39.31;100751.80;212421;1294;139530;-82
2023/08/13 12:26:32;;;;;;;4.90;2.10;;;;;;;32.53;40.40;100751.35;212952;1297;138652;-81
2023/08/13 12:31:32;;;;;;;6.00;2.20;;;;;;;32.51;40.48;100748.34;212557;1296;140255;-81
2023/08/13 12:36:33;;;;;;;6.00;2.30;;;;;;;32.58;41.09;100748.23;213082;1294;138501;-82
2023/08/13 12:41:34;;;;;;;3.30;1.90;;;;;;;32.56;41.96;100745.73;212489;1297;141125;-81
2023/08/13 12:46:34;;;;;;;5.90;2.00;;;;;;;32.54;41.25;100746.20;213079;1299;137907;-82
2023/08/13 12:51:35;;;;;;;4.10;1.90;;;;;;;32.39;42.17;100749.23;212477;1295;139963;-81
2023/08/13 12:56:35;;;;;;;3.70;2.30;;;;;;;32.56;42.08;100751.75;213019;1293;137989;-81
2023/08/13 13:01:35;;;;;;;3.70;1.70;;;;;;;32.63;43.42;100748.38;212550;1293;139533;-81
2023/08/13 13:06:36;;;;;;;5.10;1.90;;;;;;;32.73;43.13;100749.73;212893;1296;138062;-81
2023/08/13 13:11:36;;;;;;;8.20;2.30;;;;;;;32.86;42.10;100743.68;212637;1294;140881;-83
2023/08/13 13:16:36;;;;;;;4.90;2.10;;;;;;;32.49;39.96;100737.35;213017;1297;138205;-82
2023/08/13 13:21:37;;;;;;;4.10;1.90;;;;;;;32.09;40.93;100731.83;212582;1294;140187;-81
2023/08/13 13:26:37;;;;;;;3.10;1.80;;;;;;;31.83;40.37;100729.94;213137;1297;138088;-81
2023/08/13 13:31:38;;;;;;;3.80;1.80;;;;;;;31.64;42.44;100730.52;212539;1298;140128;-82
2023/08/13 13:36:38;;;;;;;3.30;1.70;;;;;;;31.59;41.47;100730.25;212996;1294;138093;-80
2023/08/13 13:41:39;;;;;;;5.80;2.30;;;;;;;31.59;41.97;100728.64;212743;1298;140585;-81
2023/08/13 13:46:39;;;;;;;4.70;1.90;;;;;;;31.72;42.84;100723.77;213224;1298;138298;-82
2023/08/13 13:51:41;;;;;;;5.70;2.00;;;;;;;31.59;42.57;100729.42;212732;1293;140994;-80
2023/08/13 13:56:42;;;;;;;4.70;2.20;;;;;;;31.49;43.67;100729.09;213123;1298;138136;-82
2023/08/13 14:01:43;;;;;;;4.30;2.00;;;;;;;31.59;43.30;100725.48;212510;1296;140550;-82
2023/08/13 14:06:44;;;;;;;5.50;1.90;;;;;;;31.52;42.68;100716.93;213071;1299;138128;-81
2023/08/13 14:11:44;;;;;;;6.10;1.80;;;;;;;31.38;45.52;100710.48;212364;1297;141420;-81
2023/08/13 14:16:45;;;;;;;5.90;1.90;;;;;;;31.42;43.94;100710.34;213199;1297;98037;-82
2023/08/13 14:21:45;;;;;;;6.80;1.80;;;;;;;31.27;45.51;100708.89;212485;1299;140870;-82
2023/08/13 14:26:49;;;;;;;5.20;2.30;;;;;;;31.20;45.89;100707.89;213020;1296;138071;-80
2023/08/13 14:31:49;;;;;;;3.60;1.70;;;;;;;31.16;46.38;100698.29;212498;1296;140389;-82
2023/08/13 14:36:50;;;;;;;4.30;2.10;;;;;;;31.16;47.53;100692.52;212824;1297;138389;-80
2023/08/13 14:41:50;;;;;;;3.80;1.80;;;;;;;31.16;47.59;100693.73;212437;1294;140641;-80
2023/08/13 14:46:51;;;;;;;3.80;1.90;;;;;;;31.14;46.70;100682.61;213009;1294;98435;-80
2023/08/13 14:51:51;;;;;;;4.50;1.60;;;;;;;30.99;45.11;100683.02;212494;1293;141037;-80
2023/08/13 14:56:52;;;;;;;5.70;1.70;;;;;;;30.78;46.07;100685.79;212888;1296;138052;-79
2023/08/13 15:01:52;;;;;;;5.70;2.60;;;;;;;30.53;47.16;100686.98;212700;1296;140760;-80
2023/08/13 15:06:53;;;;;;;3.90;1.80;;;;;;;30.42;47.02;100690.33;213561;1297;138349;-80
2023/08/13 15:11:53;;;;;;;7.80;2.30;;;;;;;29.85;44.60;100688.08;212898;1295;142048;-80
2023/08/13 15:16:53;;;;;;;6.80;2.10;;;;;;;29.44;47.71;100681.22;213438;1298;98828;-81
2023/08/13 15:21:54;;;;;;;7.00;2.20;;;;;;;29.31;47.84;100678.00;213046;1294;140630;-80
2023/08/13 15:26:54;;;;;;;8.20;2.00;;;;;;;29.26;47.72;100670.17;213385;1294;138821;-81
2023/08/13 15:31:55;;;;;;;5.20;2.30;;;;;;;29.18;48.38;100672.45;212868;1300;140791;-80
2023/08/13 15:36:55;;;;;;;4.10;1.70;;;;;;;28.90;46.29;100678.02;213261;1296;138733;-81
2023/08/13 15:41:56;;;;;;;8.70;2.40;;;;;;;28.68;48.42;100672.42;212988;1294;140377;-81
2023/08/13 15:46:56;;;;;;;5.40;1.90;;;;;;;28.60;49.19;100670.10;213886;1294;99376;-81
2023/08/13 15:51:57;;;;;;;4.70;2.00;;;;;;;28.54;49.48;100675.16;212769;1298;139887;-81
2023/08/13 15:56:57;;;;;;;5.30;2.20;;;;;;;28.43;49.63;100665.13;213222;1294;139567;-80
2023/08/13 16:01:57;;;;;;;6.60;2.20;;;;;;;28.22;48.81;100664.99;212955;1296;139980;-81
2023/08/13 16:06:58;;;;;;;4.60;1.90;;;;;;;27.92;48.73;100664.22;213369;1298;138271;-80
2023/08/13 16:11:58;;;;;;;4.60;2.00;;;;;;;27.74;49.39;100659.17;212770;1295;140544;-80
2023/08/13 16:16:59;;;;;;;6.70;2.10;;;;;;;27.56;50.92;100656.85;213363;1298;99280;-80
2023/08/13 16:21:59;;;;;;;8.20;2.20;;;;;;;27.38;51.59;100653.08;212547;1299;140908;-80
2023/08/13 16:27:01;;;;;;;4.50;1.90;;;;;;;27.25;51.34;100653.03;213131;1299;138730;-80
2023/08/13 16:32:01;;;;;;;8.00;2.10;;;;;;;27.15;52.95;100657.86;212712;1296;141793;-80
2023/08/13 16:37:02;;;;;;;10.80;2.60;;;;;;;26.99;53.75;100658.60;213666;1297;138158;-80
2023/08/13 16:42:02;;;;;;;5.20;2.00;;;;;;;26.86;54.47;100660.90;213208;1299;140350;-80
2023/08/13 16:47:03;;;;;;;7.00;2.30;;;;;;;26.75;55.58;100656.56;213893;1298;97990;-80
2023/08/13 16:52:04;;;;;;;7.30;2.10;;;;;;;26.68;56.03;100661.56;212986;1295;141098;-80
2023/08/13 16:57:04;;;;;;;7.10;2.20;;;;;;;26.59;56.14;100662.79;213171;1300;138431;-80
2023/08/13 17:02:05;;;;;;;6.50;2.30;;;;;;;26.39;56.05;100665.52;212869;1296;141287;-81
2023/08/13 17:07:05;;;;;;;6.10;2.00;;;;;;;26.20;57.01;100665.44;212973;1299;139115;-80
2023/08/13 17:12:06;;;;;;;7.20;2.50;;;;;;;26.07;57.48;100664.21;212755;1298;140508;-80
2023/08/13 17:17:06;;;;;;;8.50;3.70;;;;;;;25.91;57.81;100663.86;213400;1296;98172;-81
2023/08/13 17:22:07;;;;;;;7.30;2.60;;;;;;;25.74;58.49;100663.25;212735;1294;140004;-81
2023/08/13 17:27:07;;;;;;;4.60;2.00;;;;;;;25.56;58.60;100662.70;213258;1300;138289;-81
2023/08/13 17:32:09;;;;;;;5.60;2.10;;;;;;;25.44;59.16;100659.81;212564;1297;141801;-80
2023/08/13 17:37:10;;;;;;;8.30;2.50;;;;;;;25.29;59.29;100660.19;213116;1296;139105;-80
2023/08/13 17:42:11;;;;;;;7.40;2.50;;;;;;;25.13;60.02;100662.98;212552;1295;140084;-80
2023/08/13 17:47:11;;;;;;;4.90;2.10;;;;;;;25.01;60.72;100664.95;213719;1296;99117;-80
2023/08/13 17:52:12;;;;;;;11.60;3.00;;;;;;;24.90;61.61;100678.67;212716;1294;140398;-80
2023/08/13 17:57:13;;;;;;;6.80;2.60;;;;;;;24.75;62.63;100678.27;213027;1298;138632;-80
2023/08/13 18:02:13;;;;;;;7.00;2.50;;;;;;;24.60;62.56;100675.05;213219;1297;140119;-80
2023/08/13 18:07:13;;;;;;;7.60;2.20;;;;;;;24.44;63.35;100668.39;213853;1297;139771;-80
2023/08/13 18:12:14;;;;;;;7.60;2.90;;;;;;;24.31;63.24;100677.48;213446;1295;143148;-80
2023/08/13 18:17:14;;;;;;;6.70;2.50;;;;;;;24.13;63.14;100680.43;213507;1296;110460;-80
2023/08/13 18:22:15;;;;;;;7.50;3.30;;;;;;;23.95;63.92;100686.58;213176;1294;141116;-80
2023/08/13 18:27:16;;;;;;;9.10;3.10;;;;;;;23.77;64.23;100691.80;213821;1297;138056;-80
2023/08/13 18:32:16;;;;;;;7.50;3.10;;;;;;;23.67;64.59;100695.42;213192;1294;139965;-80
2023/08/13 18:37:17;;;;;;;7.70;3.40;;;;;;;23.62;64.66;100705.33;213386;1299;138245;-81
2023/08/13 18:42:17;;;;;;;6.90;3.30;;;;;;;23.47;66.10;100704.54;212580;1298;140670;-80
2023/08/13 18:47:18;;;;;;;8.30;3.90;;;;;;;23.20;66.91;100699.77;213078;1299;100231;-80
2023/08/13 18:52:18;;;;;;;9.90;3.70;;;;;;;22.96;68.16;100702.77;212889;1297;139760;-81
2023/08/13 18:57:19;;;;;;;9.90;4.30;;;;;;;22.82;69.38;100708.40;213409;1298;137909;-80
2023/08/13 19:02:20;;;;;;;7.70;4.00;;;;;;;22.67;70.63;100709.16;213253;1298;140106;-81
2023/08/13 19:07:20;;;;;;;7.90;3.60;;;;;;;22.46;70.62;100712.09;213447;1299;138057;-80
2023/08/13 19:12:21;;;;;;;8.90;4.00;;;;;;;22.25;71.14;100721.90;212831;1298;140372;-81
2023/08/13 19:17:22;;;;;;;8.80;3.50;;;;;;;22.05;71.45;100724.06;213204;1298;97962;-82
2023/08/13 19:22:23;;;;;;;7.10;3.20;;;;;;;21.95;72.18;100726.05;212720;1298;139097;-82
2023/08/13 19:27:23;;;;;;;6.60;3.00;;;;;;;21.86;72.64;100727.52;213033;1299;137860;-82
2023/08/13 19:32:23;;;;;;;10.10;3.60;;;;;;;21.81;73.07;100730.96;212391;1298;139919;-82
2023/08/13 19:37:24;;;;;;;11.10;3.70;;;;;;;21.69;74.33;100735.14;213034;1298;138514;-81
2023/08/13 19:42:24;;;;;;;12.50;3.80;;;;;;;21.56;74.57;100739.84;212444;1299;140938;-82
2023/08/13 19:47:25;;;;;;;8.40;3.70;;;;;;;21.45;74.54;100742.70;213072;1296;104526;-82
2023/08/13 19:52:25;;;;;;;9.10;3.70;;;;;;;21.38;74.26;100745.79;212699;1298;141151;-82
2023/08/13 19:57:26;;;;;;;7.40;3.70;;;;;;;21.32;74.69;100737.73;213100;1296;138672;-82
2023/08/13 20:02:26;;;;;;;10.10;3.60;;;;;;;21.28;74.85;100740.47;212520;1295;140432;-82
2023/08/13 20:07:27;;;;;;;6.30;3.00;;;;;;;21.27;74.67;100738.41;213127;1299;138949;-82
2023/08/13 20:12:27;;;;;;;7.80;3.40;;;;;;;21.27;74.41;100735.38;212946;1299;140204;-82
2023/08/13 20:17:28;;;;;;;10.20;3.60;;;;;;;21.25;74.35;100731.52;213202;1300;98016;-87
2023/08/13 20:22:28;;;;;;;6.60;3.10;;;;;;;21.22;74.56;100726.64;213559;1295;140518;-87
2023/08/13 20:27:29;;;;;;;11.70;3.50;;;;;;;21.19;73.96;100725.91;214123;1296;138519;-87
2023/08/13 20:32:29;;;;;;;8.00;2.80;;;;;;;21.14;74.51;100724.05;213940;1294;141694;-87
2023/08/13 20:37:30;;;;;;;6.20;2.90;;;;;;;21.11;74.06;100724.13;214185;1298;138705;-87
2023/08/13 20:42:31;;;;;;;9.20;3.40;;;;;;;21.09;73.75;100721.39;213761;1298;140483;-88
2023/08/13 20:47:31;;;;;;;7.50;3.00;;;;;;;21.07;72.29;100725.46;214403;1298;97788;-88
2023/08/13 20:52:33;;;;;;;5.20;2.90;;;;;;;21.06;72.47;100733.31;213771;1295;141926;-87
2023/08/13 20:57:35;;;;;;;10.80;3.70;;;;;;;21.07;72.03;100731.14;216716;1295;138652;-87
2023/08/13 21:02:35;;;;;;;6.60;2.80;;;;;;;21.08;71.35;100727.04;216469;1295;141257;-87
2023/08/13 21:07:36;;;;;;;5.40;2.90;;;;;;;21.11;71.49;100726.77;213758;1295;138838;-86
2023/08/13 21:12:36;;;;;;;10.20;3.00;;;;;;;21.10;71.35;100718.27;212852;1298;140655;-87
2023/08/13 21:17:36;;;;;;;7.40;2.50;;;;;;;21.08;71.06;100721.34;213407;1295;98076;-86
2023/08/13 21:22:37;;;;;;;6.40;3.10;;;;;;;21.10;69.88;100718.66;212699;1298;141495;-88
2023/08/13 21:27:37;;;;;;;11.00;3.30;;;;;;;21.15;69.15;100716.52;212875;1295;138561;-86
2023/08/13 21:32:39;;;;;;;6.60;3.10;;;;;;;21.22;68.82;100722.23;212414;1296;141101;-85
2023/08/13 21:37:40;;;;;;;10.00;3.30;;;;;;;21.26;68.74;100720.30;212945;1299;138994;-86
2023/08/13 21:42:40;;;;;;;10.60;3.30;;;;;;;21.25;68.60;100725.27;212432;1298;141272;-85
2023/08/13 21:47:42;;;;;;;10.00;3.20;;;;;;;21.23;69.12;100727.16;212879;1297;97965;-85
2023/08/13 21:52:42;;;;;;;9.00;3.50;;;;;;;21.21;68.93;100727.55;212498;1298;141772;-85
2023/08/13 21:57:43;;;;;;;8.00;2.80;;;;;;;21.18;69.08;100726.98;212588;1299;557699;-86
2023/08/13 22:02:43;;;;;;;7.20;2.90;;;;;;;21.17;68.93;100732.85;212889;1298;140039;-89
2023/08/13 22:07:44;;;;;;;7.90;2.90;;;;;;;21.19;68.64;100735.14;214133;1296;138345;-85
2023/08/13 22:12:45;;;;;;;10.10;3.20;;;;;;;21.21;68.33;100739.25;213519;1296;140051;-86
2023/08/13 22:17:45;;;;;;;11.20;3.30;;;;;;;21.21;68.06;100739.47;214159;1296;138476;-85
2023/08/13 22:22:46;;;;;;;9.80;3.20;;;;;;;21.21;67.87;100734.77;213896;1294;140278;-85
2023/08/13 22:27:47;;;;;;;8.90;3.20;;;;;;;21.22;67.61;100729.75;214264;1294;137849;-86
2023/08/13 22:32:47;;;;;;;9.50;2.90;;;;;;;21.24;67.34;100733.45;213899;1296;140196;-85
2023/08/13 22:37:48;;;;;;;8.20;2.80;;;;;;;21.27;67.43;100739.63;214283;1297;138287;-85
2023/08/13 22:42:48;;;;;;;8.90;3.10;;;;;;;21.29;67.08;100733.81;215174;1294;140526;-85